sensor_id;sensor_type;location;lat;lon;timestamp;pressure;altitude;pressure_sealevel;temperature;humidity
55675;BME280;41562;44.330;23.802;2023-10-19T00:01:04;100260.63;;;7.47;96.51
55675;BME280;41562;44.330;23.802;2023-10-19T00:03:38;100264.28;;;7.41;98.16
55675;BME280;41562;44.330;23.802;2023-10-19T00:06:05;100259.53;;;7.43;96.54
55675;BME280;41562;44.330;23.802;2023-10-19T00:08:37;100254.16;;;7.38;97.06
55675;BME280;41562;44.330;23.802;2023-10-19T00:11:08;100248.88;;;7.43;98.06
55675;BME280;41562;44.330;23.802;2023-10-19T00:13:37;100247.97;;;7.33;96.97
55675;BME280;41562;44.330;23.802;2023-10-19T00:16:12;100250.69;;;7.38;98.02
55675;BME280;41562;44.330;23.802;2023-10-19T00:18:49;100234.53;;;7.44;99.06
55675;BME280;41562;44.330;23.802;2023-10-19T00:21:17;100230.75;;;7.40;98.71
55675;BME280;41562;44.330;23.802;2023-10-19T00:23:51;100233.16;;;7.42;97.57
55675;BME280;41562;44.330;23.802;2023-10-19T00:26:19;100238.81;;;7.23;98.47
55675;BME280;41562;44.330;23.802;2023-10-19T00:28:51;100243.28;;;7.18;99.66
55675;BME280;41562;44.330;23.802;2023-10-19T00:31:25;100243.94;;;7.30;98.57
55675;BME280;41562;44.330;23.802;2023-10-19T00:33:57;100247.47;;;7.36;97.73
55675;BME280;41562;44.330;23.802;2023-10-19T00:36:26;100242.75;;;7.43;98.36
55675;BME280;41562;44.330;23.802;2023-10-19T00:39:00;100243.97;;;7.57;96.09
55675;BME280;41562;44.330;23.802;2023-10-19T00:41:33;100244.56;;;7.37;96.40
55675;BME280;41562;44.330;23.802;2023-10-19T00:44:03;100241.44;;;7.18;96.74
55675;BME280;41562;44.330;23.802;2023-10-19T00:46:35;100245.94;;;7.40;97.68
55675;BME280;41562;44.330;23.802;2023-10-19T00:49:06;100243.84;;;7.20;99.37
55675;BME280;41562;44.330;23.802;2023-10-19T00:51:47;100247.75;;;7.12;96.56
55675;BME280;41562;44.330;23.802;2023-10-19T00:54:27;100245.75;;;7.24;98.00
55675;BME280;41562;44.330;23.802;2023-10-19T00:56:59;100244.69;;;7.25;96.00
55675;BME280;41562;44.330;23.802;2023-10-19T00:59:31;100239.63;;;7.24;96.73
55675;BME280;41562;44.330;23.802;2023-10-19T01:02:01;100239.72;;;7.07;97.56
55675;BME280;41562;44.330;23.802;2023-10-19T01:04:33;100237.59;;;7.09;99.24
55675;BME280;41562;44.330;23.802;2023-10-19T01:07:03;100239.94;;;7.06;97.22
55675;BME280;41562;44.330;23.802;2023-10-19T01:09:31;100239.56;;;6.97;99.38
55675;BME280;41562;44.330;23.802;2023-10-19T01:11:59;100235.63;;;7.00;99.20
55675;BME280;41562;44.330;23.802;2023-10-19T01:14:32;100241.78;;;7.05;100.00
55675;BME280;41562;44.330;23.802;2023-10-19T01:17:02;100250.63;;;7.11;98.84
55675;BME280;41562;44.330;23.802;2023-10-19T01:19:30;100234.44;;;6.91;97.30
55675;BME280;41562;44.330;23.802;2023-10-19T01:22:03;100233.88;;;6.89;97.37
55675;BME280;41562;44.330;23.802;2023-10-19T01:24:31;100231.94;;;6.84;98.47
55675;BME280;41562;44.330;23.802;2023-10-19T01:26:59;100231.47;;;6.87;97.85
55675;BME280;41562;44.330;23.802;2023-10-19T01:29:32;100234.13;;;6.87;98.68
55675;BME280;41562;44.330;23.802;2023-10-19T01:32:00;100232.34;;;6.93;98.36
55675;BME280;41562;44.330;23.802;2023-10-19T01:34:28;100233.06;;;6.66;98.71
55675;BME280;41562;44.330;23.802;2023-10-19T01:36:59;100234.16;;;6.70;99.54
55675;BME280;41562;44.330;23.802;2023-10-19T01:39:27;100235.66;;;6.61;99.21
55675;BME280;41562;44.330;23.802;2023-10-19T01:41:55;100239.84;;;6.57;98.43
55675;BME280;41562;44.330;23.802;2023-10-19T01:44:28;100237.03;;;6.64;98.83
55675;BME280;41562;44.330;23.802;2023-10-19T01:47:04;100226.47;;;6.52;98.50
55675;BME280;41562;44.330;23.802;2023-10-19T01:49:32;100227.09;;;6.59;97.46
55675;BME280;41562;44.330;23.802;2023-10-19T01:52:04;100218.38;;;6.42;98.68
55675;BME280;41562;44.330;23.802;2023-10-19T01:54:32;100221.25;;;6.57;99.35
55675;BME280;41562;44.330;23.802;2023-10-19T01:57:05;100215.84;;;6.52;98.99
55675;BME280;41562;44.330;23.802;2023-10-19T01:59:36;100217.69;;;6.52;98.93
55675;BME280;41562;44.330;23.802;2023-10-19T02:02:07;100213.66;;;6.66;100.00
55675;BME280;41562;44.330;23.802;2023-10-19T02:04:37;100218.53;;;6.74;100.00
55675;BME280;41562;44.330;23.802;2023-10-19T02:07:10;100214.84;;;6.75;100.00
55675;BME280;41562;44.330;23.802;2023-10-19T02:09:38;100220.28;;;6.63;100.00
55675;BME280;41562;44.330;23.802;2023-10-19T02:12:08;100212.38;;;6.68;100.00
55675;BME280;41562;44.330;23.802;2023-10-19T02:14:48;100210.19;;;6.65;100.00
55675;BME280;41562;44.330;23.802;2023-10-19T02:17:16;100209.38;;;6.65;99.63
55675;BME280;41562;44.330;23.802;2023-10-19T02:19:44;100212.16;;;6.53;98.85
55675;BME280;41562;44.330;23.802;2023-10-19T02:22:12;100215.78;;;6.47;99.07
55675;BME280;41562;44.330;23.802;2023-10-19T02:24:39;100211.53;;;6.29;100.00
55675;BME280;41562;44.330;23.802;2023-10-19T02:27:07;100209.63;;;6.25;100.00
55675;BME280;41562;44.330;23.802;2023-10-19T02:29:42;100215.25;;;6.28;99.82
55675;BME280;41562;44.330;23.802;2023-10-19T02:32:12;100208.97;;;6.34;100.00
55675;BME280;41562;44.330;23.802;2023-10-19T02:34:40;100198.91;;;6.36;100.00
55675;BME280;41562;44.330;23.802;2023-10-19T02:37:13;100200.69;;;6.14;99.36
55675;BME280;41562;44.330;23.802;2023-10-19T02:39:41;100202.53;;;6.14;99.64
55675;BME280;41562;44.330;23.802;2023-10-19T02:42:12;100195.00;;;6.05;99.84
55675;BME280;41562;44.330;23.802;2023-10-19T02:44:40;100195.53;;;6.07;100.00
55675;BME280;41562;44.330;23.802;2023-10-19T02:47:13;100191.09;;;6.30;100.00
55675;BME280;41562;44.330;23.802;2023-10-19T02:49:41;100185.28;;;6.33;100.00
55675;BME280;41562;44.330;23.802;2023-10-19T02:52:08;100182.22;;;6.19;99.81
55675;BME280;41562;44.330;23.802;2023-10-19T02:54:36;100176.97;;;6.46;100.00
55675;BME280;41562;44.330;23.802;2023-10-19T02:57:06;100185.81;;;6.30;98.84
55675;BME280;41562;44.330;23.802;2023-10-19T02:59:38;100180.88;;;6.38;100.00
55675;BME280;41562;44.330;23.802;2023-10-19T03:02:09;100186.56;;;6.47;100.00
55675;BME280;41562;44.330;23.802;2023-10-19T03:04:37;100182.81;;;6.43;100.00
55675;BME280;41562;44.330;23.802;2023-10-19T03:07:10;100184.19;;;6.29;100.00
55675;BME280;41562;44.330;23.802;2023-10-19T03:09:38;100177.25;;;6.28;100.00
55675;BME280;41562;44.330;23.802;2023-10-19T03:12:06;100174.72;;;6.16;100.00
55675;BME280;41562;44.330;23.802;2023-10-19T03:14:34;100176.72;;;6.26;100.00
55675;BME280;41562;44.330;23.802;2023-10-19T03:17:07;100170.16;;;6.33;100.00
55675;BME280;41562;44.330;23.802;2023-10-19T03:19:35;100169.88;;;6.30;100.00
55675;BME280;41562;44.330;23.802;2023-10-19T03:22:07;100176.16;;;6.24;100.00
55675;BME280;41562;44.330;23.802;2023-10-19T03:24:34;100179.19;;;6.32;100.00
55675;BME280;41562;44.330;23.802;2023-10-19T03:27:09;100167.50;;;6.50;100.00
55675;BME280;41562;44.330;23.802;2023-10-19T03:29:43;100179.34;;;6.42;99.95
55675;BME280;41562;44.330;23.802;2023-10-19T03:32:15;100178.59;;;6.47;100.00
55675;BME280;41562;44.330;23.802;2023-10-19T03:34:43;100181.53;;;6.29;100.00
55675;BME280;41562;44.330;23.802;2023-10-19T03:37:16;100182.81;;;6.26;100.00
55675;BME280;41562;44.330;23.802;2023-10-19T03:39:48;100175.66;;;6.27;99.65
55675;BME280;41562;44.330;23.802;2023-10-19T03:42:16;100171.28;;;7.51;100.00
55675;BME280;41562;44.330;23.802;2023-10-19T03:44:43;100177.97;;;8.60;99.23
55675;BME280;41562;44.330;23.802;2023-10-19T03:47:16;100173.97;;;10.21;91.87
55675;BME280;41562;44.330;23.802;2023-10-19T03:49:44;100180.25;;;10.80;86.54
55675;BME280;41562;44.330;23.802;2023-10-19T03:52:18;100184.94;;;11.04;76.93
55675;BME280;41562;44.330;23.802;2023-10-19T03:54:51;100182.31;;;10.88;78.22
55675;BME280;41562;44.330;23.802;2023-10-19T03:57:23;100169.34;;;7.74;88.70
55675;BME280;41562;44.330;23.802;2023-10-19T03:59:57;100165.69;;;6.77;94.89
55675;BME280;41562;44.330;23.802;2023-10-19T04:02:31;100154.41;;;6.43;98.68
55675;BME280;41562;44.330;23.802;2023-10-19T04:05:02;100146.38;;;6.22;99.27
55675;BME280;41562;44.330;23.802;2023-10-19T04:07:30;100136.28;;;6.02;100.00
55675;BME280;41562;44.330;23.802;2023-10-19T04:10:00;100123.19;;;7.58;100.00
55675;BME280;41562;44.330;23.802;2023-10-19T04:12:27;100123.63;;;11.12;81.01
55675;BME280;41562;44.330;23.802;2023-10-19T04:14:59;100132.03;;;8.47;87.52
55675;BME280;41562;44.330;23.802;2023-10-19T04:17:32;100121.69;;;7.40;95.14
55675;BME280;41562;44.330;23.802;2023-10-19T04:20:03;100118.00;;;6.88;97.58
55675;BME280;41562;44.330;23.802;2023-10-19T04:22:31;100115.41;;;6.49;100.00
55675;BME280;41562;44.330;23.802;2023-10-19T04:25:02;100114.63;;;6.49;100.00
55675;BME280;41562;44.330;23.802;2023-10-19T04:27:29;100121.28;;;6.29;100.00
55675;BME280;41562;44.330;23.802;2023-10-19T04:29:56;100128.53;;;6.17;100.00
55675;BME280;41562;44.330;23.802;2023-10-19T04:32:27;100125.66;;;6.19;100.00
55675;BME280;41562;44.330;23.802;2023-10-19T04:34:58;100128.59;;;6.00;100.00
55675;BME280;41562;44.330;23.802;2023-10-19T04:37:29;100122.78;;;6.03;100.00
55675;BME280;41562;44.330;23.802;2023-10-19T04:39:59;100114.47;;;6.17;100.00
55675;BME280;41562;44.330;23.802;2023-10-19T04:42:35;100115.72;;;6.31;100.00
55675;BME280;41562;44.330;23.802;2023-10-19T04:45:06;100115.44;;;6.32;100.00
55675;BME280;41562;44.330;23.802;2023-10-19T04:47:34;100108.22;;;6.28;100.00
55675;BME280;41562;44.330;23.802;2023-10-19T04:50:06;100128.00;;;6.37;100.00
55675;BME280;41562;44.330;23.802;2023-10-19T04:52:43;100133.03;;;6.55;100.00
55675;BME280;41562;44.330;23.802;2023-10-19T04:55:11;100144.34;;;6.67;100.00
55675;BME280;41562;44.330;23.802;2023-10-19T04:57:44;100139.50;;;6.64;100.00
55675;BME280;41562;44.330;23.802;2023-10-19T05:00:13;100149.66;;;6.67;100.00
55675;BME280;41562;44.330;23.802;2023-10-19T05:02:42;100148.66;;;6.73;100.00
55675;BME280;41562;44.330;23.802;2023-10-19T05:05:10;100148.09;;;6.93;99.19
55675;BME280;41562;44.330;23.802;2023-10-19T05:07:49;100153.28;;;6.83;98.02
55675;BME280;41562;44.330;23.802;2023-10-19T05:10:25;100151.88;;;6.75;97.96
55675;BME280;41562;44.330;23.802;2023-10-19T05:12:56;100138.66;;;6.80;97.34
55675;BME280;41562;44.330;23.802;2023-10-19T05:15:28;100137.84;;;6.80;96.66
55675;BME280;41562;44.330;23.802;2023-10-19T05:18:00;100134.44;;;6.84;100.00
55675;BME280;41562;44.330;23.802;2023-10-19T05:20:31;100143.53;;;6.89;97.88
55675;BME280;41562;44.330;23.802;2023-10-19T05:23:01;100148.28;;;6.86;99.32
55675;BME280;41562;44.330;23.802;2023-10-19T05:25:33;100144.00;;;6.85;100.00
55675;BME280;41562;44.330;23.802;2023-10-19T05:28:01;100138.44;;;6.87;100.00
55675;BME280;41562;44.330;23.802;2023-10-19T05:30:31;100143.97;;;6.80;99.45
55675;BME280;41562;44.330;23.802;2023-10-19T05:33:02;100150.38;;;6.84;100.00
55675;BME280;41562;44.330;23.802;2023-10-19T05:35:30;100161.25;;;7.05;100.00
55675;BME280;41562;44.330;23.802;2023-10-19T05:37:58;100161.44;;;6.98;100.00
55675;BME280;41562;44.330;23.802;2023-10-19T05:40:29;100165.00;;;7.09;99.41
55675;BME280;41562;44.330;23.802;2023-10-19T05:42:58;100166.97;;;7.18;100.00
55675;BME280;41562;44.330;23.802;2023-10-19T05:45:28;100171.31;;;7.03;98.39
55675;BME280;41562;44.330;23.802;2023-10-19T05:47:56;100177.81;;;7.12;99.42
55675;BME280;41562;44.330;23.802;2023-10-19T05:50:27;100175.50;;;7.20;100.00
55675;BME280;41562;44.330;23.802;2023-10-19T05:52:57;100175.25;;;7.22;100.00
55675;BME280;41562;44.330;23.802;2023-10-19T05:55:25;100167.25;;;7.22;98.62
55675;BME280;41562;44.330;23.802;2023-10-19T05:57:59;100162.28;;;7.04;98.17
55675;BME280;41562;44.330;23.802;2023-10-19T06:00:30;100169.72;;;7.28;99.13
55675;BME280;41562;44.330;23.802;2023-10-19T06:03:04;100172.19;;;7.35;99.69
55675;BME280;41562;44.330;23.802;2023-10-19T06:05:35;100177.75;;;7.34;100.00
55675;BME280;41562;44.330;23.802;2023-10-19T06:08:05;100177.63;;;7.45;100.00
55675;BME280;41562;44.330;23.802;2023-10-19T06:10:34;100180.31;;;7.50;99.77
55675;BME280;41562;44.330;23.802;2023-10-19T06:13:05;100183.06;;;7.60;99.62
55675;BME280;41562;44.330;23.802;2023-10-19T06:15:40;100182.13;;;7.45;98.28
55675;BME280;41562;44.330;23.802;2023-10-19T06:18:11;100178.72;;;7.49;97.62
55675;BME280;41562;44.330;23.802;2023-10-19T06:20:47;100168.50;;;7.68;96.88
55675;BME280;41562;44.330;23.802;2023-10-19T06:23:22;100176.28;;;7.75;96.69
55675;BME280;41562;44.330;23.802;2023-10-19T06:25:49;100171.56;;;7.82;96.07
55675;BME280;41562;44.330;23.802;2023-10-19T06:28:29;100167.03;;;7.82;95.91
55675;BME280;41562;44.330;23.802;2023-10-19T06:31:00;100158.84;;;7.89;96.19
55675;BME280;41562;44.330;23.802;2023-10-19T06:33:31;100162.94;;;8.06;97.34
55675;BME280;41562;44.330;23.802;2023-10-19T06:36:08;100168.50;;;8.00;98.94
55675;BME280;41562;44.330;23.802;2023-10-19T06:38:36;100177.63;;;8.09;96.73
55675;BME280;41562;44.330;23.802;2023-10-19T06:41:17;100176.09;;;8.23;97.44
55675;BME280;41562;44.330;23.802;2023-10-19T06:43:48;100174.13;;;8.40;96.24
55675;BME280;41562;44.330;23.802;2023-10-19T06:46:19;100175.44;;;8.43;95.16
55675;BME280;41562;44.330;23.802;2023-10-19T06:48:47;100169.41;;;8.58;97.04
55675;BME280;41562;44.330;23.802;2023-10-19T06:51:17;100162.19;;;8.53;94.36
55675;BME280;41562;44.330;23.802;2023-10-19T06:53:45;100154.13;;;8.43;96.06
55675;BME280;41562;44.330;23.802;2023-10-19T06:56:15;100150.19;;;8.56;98.67
55675;BME280;41562;44.330;23.802;2023-10-19T06:58:50;100143.66;;;8.78;98.32
55675;BME280;41562;44.330;23.802;2023-10-19T07:01:18;100143.03;;;8.66;96.75
55675;BME280;41562;44.330;23.802;2023-10-19T07:03:49;100151.88;;;8.72;96.21
55675;BME280;41562;44.330;23.802;2023-10-19T07:06:16;100160.41;;;8.74;97.00
55675;BME280;41562;44.330;23.802;2023-10-19T07:08:47;100155.66;;;8.86;97.78
55675;BME280;41562;44.330;23.802;2023-10-19T07:11:18;100162.06;;;8.85;97.27
55675;BME280;41562;44.330;23.802;2023-10-19T07:13:49;100159.97;;;8.97;96.92
55675;BME280;41562;44.330;23.802;2023-10-19T07:16:19;100150.38;;;9.01;95.30
55675;BME280;41562;44.330;23.802;2023-10-19T07:18:47;100156.25;;;9.03;95.44
55675;BME280;41562;44.330;23.802;2023-10-19T07:21:20;100154.41;;;9.09;96.12
55675;BME280;41562;44.330;23.802;2023-10-19T07:23:51;100156.84;;;9.20;97.86
55675;BME280;41562;44.330;23.802;2023-10-19T07:26:24;100151.75;;;9.24;96.72
55675;BME280;41562;44.330;23.802;2023-10-19T07:28:55;100156.84;;;9.31;96.19
55675;BME280;41562;44.330;23.802;2023-10-19T07:31:29;100160.56;;;9.29;94.29
55675;BME280;41562;44.330;23.802;2023-10-19T07:34:00;100161.66;;;9.44;95.78
55675;BME280;41562;44.330;23.802;2023-10-19T07:36:28;100165.41;;;9.43;95.23
55675;BME280;41562;44.330;23.802;2023-10-19T07:39:01;100165.69;;;9.46;95.74
55675;BME280;41562;44.330;23.802;2023-10-19T07:41:30;100171.03;;;9.56;94.36
55675;BME280;41562;44.330;23.802;2023-10-19T07:44:04;100165.97;;;9.70;94.21
55675;BME280;41562;44.330;23.802;2023-10-19T07:46:35;100162.50;;;9.69;93.69
55675;BME280;41562;44.330;23.802;2023-10-19T07:49:08;100164.38;;;9.79;93.30
55675;BME280;41562;44.330;23.802;2023-10-19T07:51:36;100165.41;;;9.93;93.45
55675;BME280;41562;44.330;23.802;2023-10-19T07:54:06;100156.91;;;9.91;93.30
55675;BME280;41562;44.330;23.802;2023-10-19T07:56:38;100141.38;;;9.93;93.34
55675;BME280;41562;44.330;23.802;2023-10-19T07:59:12;100143.78;;;10.00;95.75
55675;BME280;41562;44.330;23.802;2023-10-19T08:01:46;100146.72;;;10.08;92.56
55675;BME280;41562;44.330;23.802;2023-10-19T08:04:14;100155.81;;;10.23;93.45
55675;BME280;41562;44.330;23.802;2023-10-19T08:06:46;100157.91;;;10.41;91.77
55675;BME280;41562;44.330;23.802;2023-10-19T08:09:19;100150.94;;;10.45;91.21
55675;BME280;41562;44.330;23.802;2023-10-19T08:11:51;100150.66;;;10.52;90.82
55675;BME280;41562;44.330;23.802;2023-10-19T08:14:25;100154.06;;;10.72;91.49
55675;BME280;41562;44.330;23.802;2023-10-19T08:16:54;100149.16;;;10.89;89.06
55675;BME280;41562;44.330;23.802;2023-10-19T08:19:28;100144.84;;;10.99;89.43
55675;BME280;41562;44.330;23.802;2023-10-19T08:21:59;100151.06;;;11.33;87.71
55675;BME280;41562;44.330;23.802;2023-10-19T08:24:36;100144.06;;;11.71;86.41
55675;BME280;41562;44.330;23.802;2023-10-19T08:27:07;100140.88;;;11.74;85.66
55675;BME280;41562;44.330;23.802;2023-10-19T08:29:41;100145.38;;;11.79;85.12
55675;BME280;41562;44.330;23.802;2023-10-19T08:32:09;100136.22;;;11.85;85.35
55675;BME280;41562;44.330;23.802;2023-10-19T08:34:40;100152.72;;;11.97;85.54
55675;BME280;41562;44.330;23.802;2023-10-19T08:37:12;100151.09;;;12.01;85.13
55675;BME280;41562;44.330;23.802;2023-10-19T08:39:43;100139.25;;;12.07;84.20
55675;BME280;41562;44.330;23.802;2023-10-19T08:42:13;100142.69;;;12.13;83.46
55675;BME280;41562;44.330;23.802;2023-10-19T08:44:47;100136.47;;;12.17;82.49
55675;BME280;41562;44.330;23.802;2023-10-19T08:47:15;100132.13;;;12.21;83.81
55675;BME280;41562;44.330;23.802;2023-10-19T08:49:53;100135.25;;;12.28;83.90
55675;BME280;41562;44.330;23.802;2023-10-19T08:52:21;100131.50;;;12.29;84.04
55675;BME280;41562;44.330;23.802;2023-10-19T08:54:53;100127.63;;;12.40;83.52
55675;BME280;41562;44.330;23.802;2023-10-19T08:57:21;100132.44;;;12.43;83.14
55675;BME280;41562;44.330;23.802;2023-10-19T08:59:49;100134.25;;;12.48;83.39
55675;BME280;41562;44.330;23.802;2023-10-19T09:02:24;100133.56;;;12.61;82.96
55675;BME280;41562;44.330;23.802;2023-10-19T09:04:55;100137.22;;;12.70;82.40
55675;BME280;41562;44.330;23.802;2023-10-19T09:07:23;100138.28;;;12.69;82.55
55675;BME280;41562;44.330;23.802;2023-10-19T09:09:51;100136.25;;;12.61;82.89
55675;BME280;41562;44.330;23.802;2023-10-19T09:12:25;100132.00;;;12.79;82.56
55675;BME280;41562;44.330;23.802;2023-10-19T09:14:55;100131.81;;;12.94;83.46
55675;BME280;41562;44.330;23.802;2023-10-19T09:17:32;100126.28;;;13.04;81.23
55675;BME280;41562;44.330;23.802;2023-10-19T09:20:06;100122.41;;;13.15;81.06
55675;BME280;41562;44.330;23.802;2023-10-19T09:22:36;100128.81;;;13.19;80.06
55675;BME280;41562;44.330;23.802;2023-10-19T09:25:07;100132.91;;;13.31;81.82
55675;BME280;41562;44.330;23.802;2023-10-19T09:27:38;100120.09;;;13.27;81.13
55675;BME280;41562;44.330;23.802;2023-10-19T09:30:11;100121.63;;;13.34;80.93
55675;BME280;41562;44.330;23.802;2023-10-19T09:32:48;100111.88;;;13.38;80.14
55675;BME280;41562;44.330;23.802;2023-10-19T09:35:19;100109.81;;;13.48;79.92
55675;BME280;41562;44.330;23.802;2023-10-19T09:37:50;100107.84;;;13.54;79.20
55675;BME280;41562;44.330;23.802;2023-10-19T09:40:25;100109.16;;;13.56;79.52
55675;BME280;41562;44.330;23.802;2023-10-19T09:42:53;100115.16;;;13.67;79.50
55675;BME280;41562;44.330;23.802;2023-10-19T09:45:31;100100.16;;;13.80;78.63
55675;BME280;41562;44.330;23.802;2023-10-19T09:48:04;100096.59;;;13.84;77.38
55675;BME280;41562;44.330;23.802;2023-10-19T09:50:36;100092.50;;;13.87;76.60
55675;BME280;41562;44.330;23.802;2023-10-19T09:53:09;100090.09;;;13.85;76.92
55675;BME280;41562;44.330;23.802;2023-10-19T09:55:47;100089.25;;;13.90;77.40
55675;BME280;41562;44.330;23.802;2023-10-19T09:58:46;100084.19;;;14.02;77.74
55675;BME280;41562;44.330;23.802;2023-10-19T10:01:12;100087.75;;;13.97;75.44
55675;BME280;41562;44.330;23.802;2023-10-19T10:03:43;100089.66;;;13.97;76.64
55675;BME280;41562;44.330;23.802;2023-10-19T10:06:13;100088.47;;;14.03;76.99
55675;BME280;41562;44.330;23.802;2023-10-19T10:08:45;100078.09;;;14.10;77.13
55675;BME280;41562;44.330;23.802;2023-10-19T10:11:23;100070.44;;;14.17;77.28
55675;BME280;41562;44.330;23.802;2023-10-19T10:13:56;100061.88;;;14.29;77.73
55675;BME280;41562;44.330;23.802;2023-10-19T10:16:29;100059.06;;;14.61;75.54
55675;BME280;41562;44.330;23.802;2023-10-19T10:19:04;100046.22;;;14.58;74.31
55675;BME280;41562;44.330;23.802;2023-10-19T10:21:34;100043.63;;;14.67;75.18
55675;BME280;41562;44.330;23.802;2023-10-19T10:24:05;100044.63;;;15.29;74.10
55675;BME280;41562;44.330;23.802;2023-10-19T10:26:59;100032.44;;;15.93;72.24
55675;BME280;41562;44.330;23.802;2023-10-19T10:29:28;100023.06;;;16.39;67.60
55675;BME280;41562;44.330;23.802;2023-10-19T10:31:58;100020.31;;;16.13;67.44
55675;BME280;41562;44.330;23.802;2023-10-19T10:37:10;100013.19;;;15.78;68.02
55675;BME280;41562;44.330;23.802;2023-10-19T10:39:44;100005.31;;;15.90;66.47
55675;BME280;41562;44.330;23.802;2023-10-19T10:42:13;99994.91;;;15.66;66.21
55675;BME280;41562;44.330;23.802;2023-10-19T10:44:44;99993.53;;;15.46;67.62
55675;BME280;41562;44.330;23.802;2023-10-19T10:47:22;99994.41;;;15.55;66.98
55675;BME280;41562;44.330;23.802;2023-10-19T10:49:59;99982.59;;;15.51;67.50
55675;BME280;41562;44.330;23.802;2023-10-19T10:52:33;99981.00;;;15.50;66.05
55675;BME280;41562;44.330;23.802;2023-10-19T10:55:11;99980.03;;;15.46;67.68
55675;BME280;41562;44.330;23.802;2023-10-19T10:57:45;99973.56;;;15.47;65.88
55675;BME280;41562;44.330;23.802;2023-10-19T11:00:18;99966.03;;;15.58;65.32
55675;BME280;41562;44.330;23.802;2023-10-19T11:02:47;99966.22;;;15.61;66.17
55675;BME280;41562;44.330;23.802;2023-10-19T11:05:41;99958.00;;;15.75;66.02
55675;BME280;41562;44.330;23.802;2023-10-19T11:08:14;99961.97;;;15.78;64.86
55675;BME280;41562;44.330;23.802;2023-10-19T11:10:47;99961.19;;;15.77;64.65
55675;BME280;41562;44.330;23.802;2023-10-19T11:13:23;99955.13;;;15.72;63.73
55675;BME280;41562;44.330;23.802;2023-10-19T11:16:00;99951.81;;;15.75;65.35
55675;BME280;41562;44.330;23.802;2023-10-19T11:18:41;99940.41;;;15.78;64.95
55675;BME280;41562;44.330;23.802;2023-10-19T11:21:19;99942.81;;;15.88;64.84
55675;BME280;41562;44.330;23.802;2023-10-19T11:23:48;99932.53;;;15.98;63.94
55675;BME280;41562;44.330;23.802;2023-10-19T11:26:23;99945.75;;;16.17;63.24
55675;BME280;41562;44.330;23.802;2023-10-19T11:29:04;99943.41;;;16.41;62.00
55675;BME280;41562;44.330;23.802;2023-10-19T11:31:32;99940.53;;;16.55;60.27
55675;BME280;41562;44.330;23.802;2023-10-19T11:34:07;99930.66;;;17.02;60.46
55675;BME280;41562;44.330;23.802;2023-10-19T11:36:37;99932.50;;;17.27;61.89
55675;BME280;41562;44.330;23.802;2023-10-19T11:39:05;99920.97;;;17.56;58.82
55675;BME280;41562;44.330;23.802;2023-10-19T11:41:35;99916.31;;;17.74;61.64
55675;BME280;41562;44.330;23.802;2023-10-19T11:44:10;99915.63;;;17.77;59.62
55675;BME280;41562;44.330;23.802;2023-10-19T11:46:44;99921.22;;;17.72;60.24
55675;BME280;41562;44.330;23.802;2023-10-19T11:49:15;99909.50;;;17.59;59.58
55675;BME280;41562;44.330;23.802;2023-10-19T11:51:42;99903.38;;;17.42;57.00
55675;BME280;41562;44.330;23.802;2023-10-19T11:54:27;99882.41;;;17.39;57.55
55675;BME280;41562;44.330;23.802;2023-10-19T11:56:59;99873.16;;;17.40;58.20
55675;BME280;41562;44.330;23.802;2023-10-19T11:59:32;99871.44;;;17.35;57.42
55675;BME280;41562;44.330;23.802;2023-10-19T12:02:03;99864.25;;;17.39;56.86
55675;BME280;41562;44.330;23.802;2023-10-19T12:04:30;99861.28;;;17.32;58.78
55675;BME280;41562;44.330;23.802;2023-10-19T12:07:01;99857.97;;;17.26;58.75
55675;BME280;41562;44.330;23.802;2023-10-19T12:09:30;99867.94;;;17.35;57.83
55675;BME280;41562;44.330;23.802;2023-10-19T12:12:01;99869.31;;;17.49;57.82
55675;BME280;41562;44.330;23.802;2023-10-19T12:14:32;99869.63;;;17.48;57.09
55675;BME280;41562;44.330;23.802;2023-10-19T12:17:03;99871.34;;;17.52;57.38
55675;BME280;41562;44.330;23.802;2023-10-19T12:19:37;99868.41;;;17.37;57.73
55675;BME280;41562;44.330;23.802;2023-10-19T12:22:05;99861.13;;;17.28;56.38
55675;BME280;41562;44.330;23.802;2023-10-19T12:24:36;99852.03;;;17.33;58.46
55675;BME280;41562;44.330;23.802;2023-10-19T12:27:07;99838.69;;;17.37;57.63
55675;BME280;41562;44.330;23.802;2023-10-19T12:29:35;99838.38;;;17.38;56.82
55675;BME280;41562;44.330;23.802;2023-10-19T12:32:09;99833.56;;;17.44;56.29
55675;BME280;41562;44.330;23.802;2023-10-19T12:34:43;99831.50;;;17.41;57.42
55675;BME280;41562;44.330;23.802;2023-10-19T12:37:14;99827.06;;;17.45;57.29
55675;BME280;41562;44.330;23.802;2023-10-19T12:39:42;99821.28;;;17.46;55.61
55675;BME280;41562;44.330;23.802;2023-10-19T12:42:13;99820.59;;;17.58;55.59
55675;BME280;41562;44.330;23.802;2023-10-19T12:44:45;99821.56;;;17.62;56.47
55675;BME280;41562;44.330;23.802;2023-10-19T12:47:18;99826.66;;;17.55;55.59
55675;BME280;41562;44.330;23.802;2023-10-19T12:49:49;99819.97;;;17.61;54.87
55675;BME280;41562;44.330;23.802;2023-10-19T12:52:20;99827.06;;;17.74;54.30
55675;BME280;41562;44.330;23.802;2023-10-19T12:54:54;99833.25;;;17.75;56.01
55675;BME280;41562;44.330;23.802;2023-10-19T12:57:25;99836.47;;;17.68;55.21
55675;BME280;41562;44.330;23.802;2023-10-19T12:59:53;99826.53;;;17.51;55.16
55675;BME280;41562;44.330;23.802;2023-10-19T13:02:24;99825.75;;;17.51;55.29
55675;BME280;41562;44.330;23.802;2023-10-19T13:05:04;99833.84;;;17.51;55.05
55675;BME280;41562;44.330;23.802;2023-10-19T13:07:43;99838.09;;;17.60;55.09
55675;BME280;41562;44.330;23.802;2023-10-19T13:10:37;99820.59;;;17.58;55.14